Time;durP1;ratioP1;P1;durP2;ratioP2;P2;SDS_P1;SDS_P2;PMS_P1;PMS_P2;Temp;Humidity;BMP_temperature;BMP_pressure;BME280_temperature;BME280_humidity;BME280_pressure;Samples;Min_cycle;Max_cycle;Signal;HPM_P1;HPM_P2
2023/02/24 00:00:31;;;;;;;12.70;7.60;;;;;;;-0.64;55.48;100936.16;108168;1255;59458;-64
2023/02/24 00:15:21;;;;;;;14.30;9.10;;;;;;;-0.72;56.30;100918.16;105768;1282;612163;-76
2023/02/24 00:17:50;;;;;;;14.80;9.60;;;;;;;-0.44;56.26;100906.80;103692;1262;5208915;-76
2023/02/24 00:20:19;;;;;;;12.70;8.10;;;;;;;-0.30;56.09;100901.63;107487;1264;71312;-76
2023/02/24 00:22:49;;;;;;;12.40;7.60;;;;;;;-0.26;56.03;100893.17;107505;1264;72807;-76
2023/02/24 00:25:18;;;;;;;13.50;7.90;;;;;;;-0.28;55.82;100888.62;107505;1264;72884;-76
2023/02/24 00:27:49;;;;;;;;;;;;;;;-0.29;55.93;100888.45;107509;1264;60510;-73
2023/02/24 00:30:20;;;;;;;14.50;8.70;;;;;;;-0.32;55.96;100883.31;107498;1264;60070;-76
2023/02/24 00:32:53;;;;;;;13.70;8.50;;;;;;;-0.33;55.87;100881.16;107444;1264;71870;-76
2023/02/24 00:35:21;;;;;;;16.70;8.80;;;;;;;-0.33;56.05;100873.55;108158;1256;72887;-76
2023/02/24 00:37:50;;;;;;;16.20;9.10;;;;;;;-0.34;56.08;100864.58;108149;1254;71266;-75
2023/02/24 00:40:22;;;;;;;14.30;8.80;;;;;;;-0.35;56.07;100864.61;108193;1258;61430;-76
2023/02/24 00:42:53;;;;;;;11.20;7.40;;;;;;;-0.34;56.36;100861.23;108184;1254;60349;-77
2023/02/24 00:45:22;;;;;;;15.60;9.10;;;;;;;-0.34;56.21;100859.41;108201;1254;72167;-77
2023/02/24 00:47:56;;;;;;;12.70;8.30;;;;;;;-0.32;56.31;100853.50;108204;1254;72965;-75
2023/02/24 00:50:24;;;;;;;13.00;8.60;;;;;;;-0.31;56.33;100849.67;108141;1254;73641;-75
2023/02/24 00:52:53;;;;;;;12.70;7.80;;;;;;;-0.30;56.45;100846.05;108144;1254;61335;-76
2023/02/24 00:55:22;;;;;;;12.70;7.70;;;;;;;-0.31;56.39;100839.34;108177;1254;59613;-77
2023/02/24 00:57:50;;;;;;;14.00;8.50;;;;;;;-0.32;56.46;100833.68;108237;1254;74279;-72
2023/02/24 01:00:19;;;;;;;14.80;9.30;;;;;;;-0.32;56.59;100826.98;108192;1254;73088;-76
2023/02/24 01:02:48;;;;;;;17.00;9.30;;;;;;;-0.31;56.41;100821.77;108205;1254;73060;-76
2023/02/24 01:05:18;;;;;;;13.90;8.90;;;;;;;-0.29;56.61;100818.12;108069;1256;60291;-77
2023/02/24 01:07:47;;;;;;;14.90;8.90;;;;;;;-0.28;56.70;100811.98;108089;1257;61099;-75
2023/02/24 01:10:17;;;;;;;14.40;8.40;;;;;;;-0.26;56.88;100801.63;108099;1257;73967;-76
2023/02/24 01:12:49;;;;;;;12.60;8.30;;;;;;;-0.24;56.74;100795.80;108131;1256;74064;-75
2023/02/24 01:15:19;;;;;;;11.80;7.50;;;;;;;-0.22;56.71;100794.21;108086;1257;71737;-75
2023/02/24 01:17:48;;;;;;;13.00;7.90;;;;;;;-0.19;56.71;100793.72;108020;1256;60193;-75
2023/02/24 01:20:17;;;;;;;13.30;8.60;;;;;;;-0.18;56.77;100786.39;108066;1256;61735;-75
2023/02/24 01:22:51;;;;;;;12.50;8.30;;;;;;;-0.17;56.78;100781.35;108037;1260;74267;-75
2023/02/24 01:25:21;;;;;;;15.10;9.10;;;;;;;-0.16;56.86;100780.92;108024;1257;71710;-77
2023/02/24 01:27:49;;;;;;;16.40;8.10;;;;;;;-0.15;56.96;100773.39;107937;1256;70446;-75
2023/02/24 01:30:19;;;;;;;14.00;9.20;;;;;;;-0.14;56.81;100766.41;108008;1256;60230;-76
2023/02/24 01:32:49;;;;;;;15.30;9.20;;;;;;;-0.12;56.75;100761.13;108066;1260;59813;-76
2023/02/24 01:35:22;;;;;;;13.70;8.20;;;;;;;-0.10;56.79;100757.75;108096;1256;74039;-76
2023/02/24 01:37:52;;;;;;;14.70;8.70;;;;;;;-0.08;56.75;100752.48;107938;1258;73455;-76
2023/02/24 01:40:20;;;;;;;12.10;7.40;;;;;;;-0.07;56.76;100748.94;107998;1256;73748;-77
2023/02/24 01:42:51;;;;;;;11.20;6.60;;;;;;;-0.05;56.79;100744.40;108043;1256;63264;-74
2023/02/24 01:45:21;;;;;;;15.70;9.60;;;;;;;-0.05;56.88;100742.75;107860;1257;61494;-76
2023/02/24 01:47:51;;;;;;;15.30;9.50;;;;;;;-0.04;56.77;100739.16;107919;1257;73321;-75
2023/02/24 01:50:20;;;;;;;13.80;8.90;;;;;;;-0.03;56.90;100735.62;107899;1257;73940;-75
2023/02/24 01:52:50;;;;;;;14.40;9.20;;;;;;;-0.01;56.88;100731.48;107897;1257;72268;-75
2023/02/24 01:55:27;;;;;;;13.50;8.50;;;;;;;0.01;57.01;100726.34;107849;1257;59734;-76
2023/02/24 01:57:57;;;;;;;13.90;8.70;;;;;;;0.03;56.70;100723.29;107914;1256;60363;-76
2023/02/24 02:00:47;;;;;;;17.00;10.00;;;;;;;0.06;56.89;100717.54;108080;1256;71202;-76
2023/02/24 02:03:32;;;;;;;14.00;8.70;;;;;;;0.07;56.70;100711.11;108036;1257;71937;-76
2023/02/24 02:06:06;;;;;;;15.40;9.80;;;;;;;0.08;56.80;100704.03;108110;1256;73621;-76
2023/02/24 02:08:36;;;;;;;14.20;8.50;;;;;;;0.07;56.76;100703.34;108052;1256;60542;-76
2023/02/24 02:11:07;;;;;;;17.00;9.00;;;;;;;0.08;57.06;100698.58;107938;1256;59493;-76
2023/02/24 02:13:41;;;;;;;16.10;10.10;;;;;;;0.08;57.01;100698.26;108009;1257;73039;-78
2023/02/24 02:16:16;;;;;;;16.60;10.60;;;;;;;0.08;57.05;100693.65;108093;1256;72194;-79
2023/02/24 02:18:55;;;;;;;15.70;9.80;;;;;;;0.10;57.07;100690.80;107928;1256;72920;-76
2023/02/24 02:22:01;;;;;;;16.30;10.20;;;;;;;0.11;56.91;100693.41;108067;1256;59589;-77
2023/02/24 02:24:57;;;;;;;13.00;8.30;;;;;;;0.13;56.91;100693.19;108026;1256;60223;-75
2023/02/24 02:28:05;;;;;;;14.20;8.10;;;;;;;0.15;57.03;100689.69;107934;1257;72874;-76
2023/02/24 02:30:49;;;;;;;15.20;10.00;;;;;;;0.15;57.11;100688.71;108004;1256;73538;-76
2023/02/24 02:33:38;;;;;;;17.20;9.90;;;;;;;0.17;57.11;100684.54;107902;1257;72930;-77
2023/02/24 02:36:21;;;;;;;15.70;10.30;;;;;;;0.17;57.31;100675.17;107950;1256;60737;-75
2023/02/24 02:39:02;;;;;;;;;;;;;;;0.19;57.32;100673.48;108038;1256;61190;-76
2023/02/24 02:41:35;;;;;;;14.40;8.80;;;;;;;0.21;57.30;100670.09;108082;1256;72491;-77
2023/02/24 02:44:33;;;;;;;16.80;10.10;;;;;;;0.23;57.23;100666.38;108082;1256;74171;-76
2023/02/24 02:47:29;;;;;;;14.50;9.50;;;;;;;0.29;57.44;100658.76;108021;1254;72778;-78
2023/02/24 02:50:20;;;;;;;15.30;10.00;;;;;;;0.36;57.34;100653.61;108127;1254;59602;-77
2023/02/24 02:53:02;;;;;;;17.20;10.40;;;;;;;0.44;57.36;100648.39;108177;1254;59476;-76
2023/02/24 02:55:35;;;;;;;16.50;10.50;;;;;;;0.50;57.19;100640.92;108218;1254;74074;-76
2023/02/24 02:58:07;;;;;;;17.40;11.20;;;;;;;0.55;57.33;100636.20;108160;1257;72796;-76
2023/02/24 03:00:48;;;;;;;16.70;11.00;;;;;;;0.61;56.91;100635.09;108008;1257;73637;-76
2023/02/24 03:03:18;;;;;;;17.80;10.30;;;;;;;0.67;56.98;100631.41;108082;1257;60317;-76
2023/02/24 03:05:56;;;;;;;16.30;9.80;;;;;;;0.72;56.79;100626.07;108040;1255;59694;-76
2023/02/24 03:08:28;;;;;;;13.40;8.20;;;;;;;0.76;56.83;100624.91;107878;1257;72923;-77
2023/02/24 03:10:59;;;;;;;15.80;9.00;;;;;;;0.78;56.68;100611.55;108200;1254;72083;-76
2023/02/24 03:13:30;;;;;;;15.60;9.80;;;;;;;0.77;56.49;100610.02;108163;1254;71854;-78
2023/02/24 03:15:59;;;;;;;15.20;10.60;;;;;;;0.77;56.34;100605.56;108136;1254;61571;-79
2023/02/24 03:18:31;;;;;;;16.80;10.80;;;;;;;0.78;56.48;100601.31;108165;1254;61472;-78
2023/02/24 03:21:11;;;;;;;16.00;9.60;;;;;;;0.82;56.34;100597.21;108210;1254;73253;-78
2023/02/24 03:23:48;;;;;;;14.60;9.00;;;;;;;0.86;56.10;100594.95;108180;1254;74030;-76
2023/02/24 03:26:48;;;;;;;15.60;10.30;;;;;;;0.89;56.14;100594.65;108213;1254;72834;-76
2023/02/24 03:29:29;;;;;;;15.70;9.30;;;;;;;0.92;56.05;100584.79;108076;1257;59551;-76
2023/02/24 03:32:17;;;;;;;15.40;9.60;;;;;;;0.95;56.04;100579.02;108053;1256;61379;-79
2023/02/24 03:34:49;;;;;;;16.10;10.00;;;;;;;0.96;56.02;100576.67;108025;1257;71168;-77
2023/02/24 03:37:24;;;;;;;16.40;10.50;;;;;;;0.95;55.67;100574.12;108050;1257;71056;-77
2023/02/24 03:39:53;;;;;;;16.30;10.00;;;;;;;0.96;55.81;100566.50;108066;1255;73575;-77
2023/02/24 03:42:22;;;;;;;15.00;9.10;;;;;;;0.97;55.77;100558.64;108064;1259;61244;-76
2023/02/24 03:44:51;;;;;;;15.70;10.10;;;;;;;1.00;55.65;100547.04;108143;1253;60855;-77
2023/02/24 03:47:20;;;;;;;15.80;9.30;;;;;;;1.03;55.65;100540.51;108245;1254;72770;-76
2023/02/24 03:49:49;;;;;;;15.30;9.30;;;;;;;1.05;55.55;100538.98;108213;1254;73033;-76
2023/02/24 03:52:46;;;;;;;15.40;9.70;;;;;;;1.20;55.17;100534.96;108238;1254;72244;-77
2023/02/24 03:55:21;;;;;;;17.20;10.20;;;;;;;1.28;54.97;100533.42;108164;1254;61394;-77
2023/02/24 03:58:09;;;;;;;16.20;10.20;;;;;;;1.31;54.87;100527.52;108151;1254;59962;-78
2023/02/24 04:01:04;;;;;;;15.00;10.00;;;;;;;1.32;54.76;100519.91;108199;1254;74184;-77
2023/02/24 04:04:11;;;;;;;15.00;9.30;;;;;;;1.34;54.60;100515.42;108135;1254;72962;-77
2023/02/24 04:07:05;;;;;;;14.80;8.80;;;;;;;1.37;54.48;100515.88;108039;1254;73059;-77
2023/02/24 04:10:11;;;;;;;15.50;9.80;;;;;;;1.38;54.52;100507.82;108145;1254;59678;-78
2023/02/24 04:13:05;;;;;;;14.00;9.20;;;;;;;1.40;54.44;100501.60;108187;1254;60331;-77
2023/02/24 04:15:38;;;;;;;13.70;8.70;;;;;;;1.44;54.36;100502.34;108193;1254;71497;-77
2023/02/24 04:18:19;;;;;;;14.60;8.80;;;;;;;1.46;54.28;100494.56;108145;1254;72781;-77
2023/02/24 04:20:51;;;;;;;14.00;9.00;;;;;;;1.48;54.21;100491.95;108219;1253;73756;-76
2023/02/24 04:23:25;;;;;;;14.70;9.40;;;;;;;1.50;54.16;100482.15;108149;1254;60451;-76
2023/02/24 04:25:59;;;;;;;13.50;8.60;;;;;;;1.52;54.19;100482.92;108171;1254;62252;-80
2023/02/24 04:28:28;;;;;;;12.90;8.40;;;;;;;1.56;54.21;100483.91;108144;1254;73819;-77
2023/02/24 04:31:04;;;;;;;14.90;8.90;;;;;;;1.59;54.12;100485.52;107956;1257;72167;-77
2023/02/24 04:33:34;;;;;;;14.90;9.20;;;;;;;1.61;54.09;100480.95;108052;1257;73945;-84
2023/02/24 04:36:03;;;;;;;13.70;9.30;;;;;;;1.56;54.12;100475.15;108150;1254;62301;-76
2023/02/24 04:38:35;;;;;;;16.50;10.20;;;;;;;1.45;54.21;100471.94;108224;1254;61516;-78
2023/02/24 04:41:05;;;;;;;13.00;8.90;;;;;;;1.46;54.31;100468.05;108114;1254;75049;-77
2023/02/24 04:43:35;;;;;;;13.40;8.60;;;;;;;1.48;54.44;100461.65;108244;1259;72083;-82
2023/02/24 04:46:06;;;;;;;14.80;9.00;;;;;;;1.50;54.32;100454.33;108194;1254;72700;-76
2023/02/24 04:48:35;;;;;;;12.40;8.10;;;;;;;1.49;54.32;100452.27;108128;1255;60385;-77
2023/02/24 04:51:05;;;;;;;13.90;9.10;;;;;;;1.50;54.55;100449.59;108164;1257;61057;-78
2023/02/24 04:53:35;;;;;;;14.40;9.90;;;;;;;1.50;54.37;100455.82;108248;1254;71838;-77
2023/02/24 04:56:10;;;;;;;14.40;9.30;;;;;;;1.51;54.63;100453.80;108290;1254;73232;-78
2023/02/24 04:58:41;;;;;;;15.00;8.90;;;;;;;1.51;54.51;100461.90;108179;1259;71669;-78
2023/02/24 05:01:10;;;;;;;13.30;8.80;;;;;;;1.49;54.59;100458.42;108127;1257;60318;-79
2023/02/24 05:03:43;;;;;;;14.20;9.40;;;;;;;1.50;54.55;100461.26;108152;1254;60358;-79
2023/02/24 05:06:15;;;;;;;14.30;9.20;;;;;;;1.50;54.63;100455.82;108164;1257;73100;-78
2023/02/24 05:08:43;;;;;;;13.80;8.70;;;;;;;1.49;54.57;100456.07;108157;1254;72751;-77
2023/02/24 05:11:15;;;;;;;14.10;8.70;;;;;;;1.51;54.70;100451.02;108144;1254;73049;-77
2023/02/24 05:13:45;;;;;;;13.90;9.20;;;;;;;1.54;54.75;100449.68;108166;1254;60529;-77
2023/02/24 05:16:16;;;;;;;13.70;8.00;;;;;;;1.58;54.84;100449.77;108167;1253;60306;-77
2023/02/24 05:18:48;;;;;;;16.40;9.80;;;;;;;1.59;54.61;100443.94;108164;1254;73928;-77
2023/02/24 05:21:35;;;;;;;14.80;9.50;;;;;;;1.60;54.63;100443.16;108188;1254;70765;-79
2023/02/24 05:24:06;;;;;;;13.50;8.60;;;;;;;1.62;54.65;100444.11;108209;1254;73575;-79
2023/02/24 05:26:42;;;;;;;14.70;9.00;;;;;;;1.63;54.84;100443.95;108186;1254;60503;-78
2023/02/24 05:29:13;;;;;;;13.00;9.00;;;;;;;1.65;54.73;100438.28;108209;1254;60424;-77
2023/02/24 05:31:43;;;;;;;15.60;9.50;;;;;;;1.66;54.78;100440.27;108176;1254;74409;-76
2023/02/24 05:34:16;;;;;;;15.30;10.10;;;;;;;1.70;54.72;100436.26;108140;1254;73109;-76
2023/02/24 05:36:45;;;;;;;14.70;9.60;;;;;;;1.74;54.79;100433.59;108166;1254;73656;-77
2023/02/24 05:39:18;;;;;;;12.40;8.10;;;;;;;1.78;54.83;100432.25;108157;1254;60824;-76
2023/02/24 05:41:47;;;;;;;14.10;9.00;;;;;;;1.81;54.75;100427.98;108195;1254;60940;-78
2023/02/24 05:44:21;;;;;;;13.60;9.50;;;;;;;1.84;54.68;100426.90;108160;1254;72008;-78
2023/02/24 05:46:55;;;;;;;13.60;8.90;;;;;;;1.85;54.82;100425.41;108252;1254;72741;-78
2023/02/24 05:49:28;;;;;;;13.30;8.60;;;;;;;1.88;54.82;100418.80;108208;1258;71388;-77
2023/02/24 05:51:59;;;;;;;14.90;9.50;;;;;;;1.91;54.86;100413.61;108210;1254;60434;-78
2023/02/24 05:54:32;;;;;;;15.10;9.10;;;;;;;1.94;54.61;100414.98;108119;1257;60370;-79
2023/02/24 05:57:03;;;;;;;14.40;9.30;;;;;;;1.96;54.69;100410.33;108112;1257;74433;-77
2023/02/24 05:59:32;;;;;;;10.90;7.40;;;;;;;1.99;54.86;100408.83;108185;1258;72050;-78
2023/02/24 06:02:06;;;;;;;13.10;8.80;;;;;;;2.00;54.85;100405.38;108173;1254;72027;-78
2023/02/24 06:04:39;;;;;;;14.90;9.50;;;;;;;2.03;54.72;100402.86;108156;1254;60388;-80
2023/02/24 06:07:13;;;;;;;14.60;9.30;;;;;;;2.07;54.82;100398.08;108195;1254;60395;-79
2023/02/24 06:09:43;;;;;;;14.90;9.30;;;;;;;2.12;54.70;100386.48;108153;1254;73063;-83
2023/02/24 06:12:15;;;;;;;15.40;9.20;;;;;;;2.14;54.80;100386.71;108169;1258;70341;-79
2023/02/24 06:14:46;;;;;;;14.40;9.60;;;;;;;2.17;54.69;100385.20;108119;1254;70911;-79
2023/02/24 06:17:15;;;;;;;14.60;9.50;;;;;;;2.20;54.68;100383.95;108174;1254;60325;-79
2023/02/24 06:19:48;;;;;;;11.90;7.40;;;;;;;2.25;54.61;100379.23;108182;1254;60407;-78
2023/02/24 06:22:22;;;;;;;14.30;9.00;;;;;;;2.30;54.61;100374.84;108173;1253;74208;-79
2023/02/24 06:24:52;;;;;;;12.40;8.10;;;;;;;2.34;54.70;100373.13;108220;1254;72856;-78
2023/02/24 06:27:23;;;;;;;11.70;7.90;;;;;;;2.36;54.66;100366.43;108245;1254;72505;-77
2023/02/24 06:29:57;;;;;;;13.50;8.90;;;;;;;2.39;54.44;100364.40;108174;1253;60296;-77
2023/02/24 06:32:30;;;;;;;15.40;9.90;;;;;;;2.40;54.53;100363.45;108213;1254;59259;-78
2023/02/24 06:34:58;;;;;;;17.70;9.40;;;;;;;2.43;54.66;100356.96;108179;1254;72849;-82
2023/02/24 06:37:28;;;;;;;12.80;9.20;;;;;;;2.47;54.63;100355.16;108198;1254;73911;-79
2023/02/24 06:39:57;;;;;;;14.90;8.70;;;;;;;2.52;54.74;100352.23;108176;1254;72089;-79
2023/02/24 06:42:26;;;;;;;13.00;8.10;;;;;;;2.56;54.69;100346.05;108155;1254;60240;-79
2023/02/24 06:44:55;;;;;;;13.90;9.20;;;;;;;2.58;54.61;100344.61;108156;1254;60395;-79
2023/02/24 06:47:23;;;;;;;14.70;9.70;;;;;;;2.60;54.56;100340.06;108197;1254;74006;-80
2023/02/24 06:49:52;;;;;;;14.40;8.50;;;;;;;2.62;54.62;100333.16;108132;1254;73821;-80
2023/02/24 06:52:20;;;;;;;15.40;9.80;;;;;;;2.65;54.56;100325.88;108151;1254;73014;-80
2023/02/24 06:54:51;;;;;;;12.60;7.70;;;;;;;2.69;54.59;100320.83;108161;1254;60421;-79
2023/02/24 06:57:19;;;;;;;13.40;8.60;;;;;;;2.74;54.76;100321.21;108208;1254;61414;-79
2023/02/24 06:59:48;;;;;;;11.60;7.80;;;;;;;2.78;54.68;100311.91;108192;1254;73300;-79
2023/02/24 07:02:16;;;;;;;14.20;8.00;;;;;;;2.81;54.61;100313.20;108191;1254;72780;-80
2023/02/24 07:04:46;;;;;;;12.70;9.00;;;;;;;2.85;54.52;100310.04;108166;1254;72028;-77
2023/02/24 07:07:16;;;;;;;12.90;8.30;;;;;;;2.90;54.60;100306.60;108181;1254;60433;-78
2023/02/24 07:09:47;;;;;;;12.90;8.40;;;;;;;2.93;54.43;100300.12;108114;1254;61551;-77
2023/02/24 07:12:19;;;;;;;15.30;9.00;;;;;;;2.96;54.49;100295.80;108155;1254;74647;-78
2023/02/24 07:14:49;;;;;;;12.50;8.40;;;;;;;2.99;54.39;100295.09;108170;1254;72907;-77
2023/02/24 07:17:22;;;;;;;13.00;8.50;;;;;;;3.02;54.34;100286.38;108175;1253;72415;-81
2023/02/24 07:19:53;;;;;;;13.20;8.70;;;;;;;3.07;54.24;100284.53;108164;1254;60346;-79
2023/02/24 07:22:23;;;;;;;13.40;8.60;;;;;;;3.08;54.26;100279.29;108200;1254;60524;-79
2023/02/24 07:24:59;;;;;;;12.90;8.60;;;;;;;3.11;54.18;100275.20;108194;1254;72530;-81
2023/02/24 07:27:29;;;;;;;12.90;8.30;;;;;;;3.15;54.10;100265.67;108167;1254;71746;-80
2023/02/24 07:29:58;;;;;;;14.60;9.20;;;;;;;3.20;54.06;100262.99;108179;1254;72841;-79
2023/02/24 07:32:27;;;;;;;14.00;9.10;;;;;;;3.25;54.18;100257.02;108199;1254;60840;-80
2023/02/24 07:34:55;;;;;;;14.80;9.10;;;;;;;3.30;54.15;100252.35;108140;1258;60501;-79
2023/02/24 07:37:23;;;;;;;14.20;8.90;;;;;;;3.36;53.99;100248.52;108162;1254;75256;-80
2023/02/24 07:39:52;;;;;;;13.50;9.00;;;;;;;3.42;53.83;100244.69;108150;1254;72463;-79
2023/02/24 07:42:21;;;;;;;16.10;9.20;;;;;;;3.45;53.52;100238.48;108172;1254;73481;-78
2023/02/24 07:44:53;;;;;;;13.80;8.30;;;;;;;3.49;53.63;100237.97;108161;1254;60393;-80
2023/02/24 07:47:25;;;;;;;16.60;8.90;;;;;;;3.54;53.49;100241.05;108328;1254;61184;-80
2023/02/24 07:49:54;;;;;;;14.30;9.10;;;;;;;3.58;53.38;100232.46;108404;1254;73058;-77
2023/02/24 07:52:22;;;;;;;13.90;8.40;;;;;;;3.56;53.47;100239.48;108334;1254;71958;-78
2023/02/24 07:54:50;;;;;;;13.20;8.50;;;;;;;3.56;53.51;100242.23;108293;1254;72598;-77
2023/02/24 08:10:35;;;;;;;12.20;8.30;;;;;;;3.87;53.55;100220.27;105195;1286;613447;-70
2023/02/24 08:13:10;;;;;;;12.20;8.50;;;;;;;4.16;53.04;100215.34;103424;1268;5196428;-72
2023/02/24 08:15:39;;;;;;;13.10;8.80;;;;;;;4.13;52.98;100207.09;107321;1267;61374;-71
2023/02/24 08:35:34;;;;;;;11.30;7.80;;;;;;;4.33;53.16;100194.20;105580;1284;615246;-72
2023/02/24 08:38:06;;;;;;;12.60;7.40;;;;;;;4.64;52.75;100188.52;103478;1269;5197238;-71
2023/02/24 08:40:38;;;;;;;12.80;7.60;;;;;;;4.63;52.84;100175.96;107123;1269;73427;-68
2023/02/24 08:56:08;;;;;;;11.70;7.90;;;;;;;4.59;53.19;100169.57;105859;1282;613192;-81
2023/02/24 08:58:46;;;;;;;12.20;8.00;;;;;;;4.84;52.63;100166.55;103804;1261;5196957;-79
2023/02/24 09:01:22;;;;;;;10.70;7.20;;;;;;;4.80;52.78;100162.48;107710;1261;72499;-81
2023/02/24 09:03:57;;;;;;;12.20;7.80;;;;;;;4.76;52.83;100155.98;107659;1263;73998;-80
2023/02/24 09:06:36;;;;;;;14.30;8.40;;;;;;;4.70;52.98;100156.05;107672;1264;74056;-78
2023/02/24 09:09:16;;;;;;;13.90;8.20;;;;;;;4.69;53.10;100152.79;107571;1261;60511;-82
2023/02/24 09:11:57;;;;;;;12.20;8.00;;;;;;;4.65;53.24;100154.45;107643;1260;59320;-81
2023/02/24 09:14:28;;;;;;;12.30;7.80;;;;;;;4.64;53.50;100146.96;107625;1260;72135;-80
2023/02/24 09:17:09;;;;;;;12.70;7.90;;;;;;;4.62;53.60;100142.30;107663;1260;74126;-80
2023/02/24 09:32:17;;;;;;;13.00;8.00;;;;;;;4.81;53.69;100122.05;105749;1286;612952;-82
2023/02/24 09:34:46;;;;;;;13.50;9.10;;;;;;;5.05;53.13;100121.98;104388;1253;5192239;-79
2023/02/24 09:37:23;;;;;;;13.80;8.50;;;;;;;5.02;53.35;100113.38;108343;1253;72191;-78
2023/02/24 09:42:28;;;;;;;13.30;7.60;;;;;;;5.02;53.36;100107.30;108329;1253;71368;-80
2023/02/24 09:45:10;;;;;;;11.70;7.60;;;;;;;5.03;53.44;100105.00;108354;1254;59463;-81
2023/02/24 10:01:46;;;;;;;12.70;8.80;;;;;;;5.03;53.67;100084.95;105589;1287;612352;-67
2023/02/24 10:04:21;;;;;;;12.10;7.90;;;;;;;5.27;53.28;100075.48;103498;1266;5200821;-67
2023/02/24 10:06:57;;;;;;;12.60;8.40;;;;;;;5.24;53.47;100065.26;107442;1266;59502;-69
2023/02/24 10:09:33;;;;;;;13.20;8.30;;;;;;;5.19;53.36;100064.10;107376;1266;72419;-69
2023/02/24 10:12:15;;;;;;;13.20;8.50;;;;;;;5.17;53.54;100062.84;107385;1266;73394;-70
2023/02/24 10:15:30;;;;;;;12.10;7.60;;;;;;;5.21;53.57;100060.52;107373;1269;73130;-69
2023/02/24 10:30:18;;;;;;;12.10;8.20;;;;;;;5.55;53.12;100032.33;105697;1282;613095;-66
2023/02/24 10:32:59;;;;;;;13.30;8.90;;;;;;;5.71;52.77;100022.40;103595;1264;5186725;-64
2023/02/24 10:35:32;;;;;;;12.90;8.30;;;;;;;5.59;52.87;100011.47;107453;1266;71321;-63
2023/02/24 10:38:05;;;;;;;13.30;7.80;;;;;;;5.50;53.15;100006.92;107466;1265;74248;-64
2023/02/24 10:40:55;;;;;;;12.10;7.60;;;;;;;5.41;53.30;100004.30;107453;1266;72965;-66
2023/02/24 10:43:32;;;;;;;12.20;7.60;;;;;;;5.41;53.63;100000.77;107353;1265;60362;-65
2023/02/24 10:46:15;;;;;;;14.20;8.40;;;;;;;5.46;53.65;99997.02;107429;1264;59835;-65
2023/02/24 10:49:02;;;;;;;13.60;8.30;;;;;;;5.48;53.64;99990.77;107925;1257;72434;-67
2023/02/24 10:51:40;;;;;;;13.20;8.50;;;;;;;5.48;53.62;99982.88;107866;1256;71864;-65
2023/02/24 10:54:43;;;;;;;13.70;8.70;;;;;;;5.46;53.63;99977.85;107999;1256;72772;-65
2023/02/24 10:57:45;;;;;;;12.10;7.80;;;;;;;5.43;53.76;99972.41;107933;1256;62382;-64
2023/02/24 11:03:34;;;;;;;15.30;8.80;;;;;;;5.50;53.91;99969.03;107964;1256;72739;-65
2023/02/24 11:11:28;;;;;;;14.00;9.00;;;;;;;5.44;53.93;99955.58;107931;1256;60668;-67
2023/02/24 11:19:53;;;;;;;12.90;9.10;;;;;;;5.44;54.24;99944.29;107892;1257;73236;-66
2023/02/24 11:22:30;;;;;;;14.40;9.20;;;;;;;5.41;54.28;99943.14;107917;1257;73606;-64
2023/02/24 11:25:05;;;;;;;13.70;8.70;;;;;;;5.40;54.47;99945.40;108326;1254;59580;-64
2023/02/24 11:27:34;;;;;;;12.60;7.90;;;;;;;5.42;54.46;99945.16;108245;1254;60227;-65
2023/02/24 11:30:25;;;;;;;14.10;9.20;;;;;;;5.47;54.53;99945.56;108150;1254;74356;-65
2023/02/24 11:33:07;;;;;;;17.10;9.30;;;;;;;5.52;54.53;99944.59;108171;1254;71243;-64
2023/02/24 11:36:01;;;;;;;13.70;9.30;;;;;;;5.62;54.57;99935.77;108129;1254;72178;-64
2023/02/24 11:38:44;;;;;;;14.10;8.70;;;;;;;5.69;54.30;99933.64;108125;1254;59628;-65
2023/02/24 11:41:19;;;;;;;15.40;9.00;;;;;;;5.71;54.20;99934.58;108162;1254;59823;-65
2023/02/24 11:44:01;;;;;;;14.20;8.30;;;;;;;5.72;54.14;99931.57;108129;1254;72478;-64
2023/02/24 11:46:51;;;;;;;14.30;9.10;;;;;;;5.75;54.27;99932.46;108185;1254;73702;-64
2023/02/24 11:49:54;;;;;;;14.80;9.20;;;;;;;5.75;54.19;99927.45;108129;1254;72777;-63
2023/02/24 11:52:46;;;;;;;16.10;9.60;;;;;;;5.72;54.19;99921.56;108176;1254;60516;-66
2023/02/24 11:59:15;;;;;;;15.30;9.70;;;;;;;5.69;54.31;99915.36;107918;1254;72653;-64
2023/02/24 12:01:54;;;;;;;13.40;9.10;;;;;;;5.66;54.43;99910.83;108091;1255;74037;-65
2023/02/24 12:04:42;;;;;;;15.00;9.40;;;;;;;5.65;54.56;99911.58;108102;1256;72617;-64
2023/02/24 12:07:19;;;;;;;13.10;9.50;;;;;;;5.63;54.70;99901.03;108111;1256;59638;-65
2023/02/24 12:09:59;;;;;;;13.60;9.30;;;;;;;5.64;54.73;99897.33;108044;1256;61255;-64
2023/02/24 12:13:13;;;;;;;14.40;9.30;;;;;;;5.61;54.78;99898.23;108097;1254;74312;-64
2023/02/24 12:15:45;;;;;;;13.40;9.00;;;;;;;5.60;55.03;99894.50;108147;1254;73438;-65
2023/02/24 12:18:29;;;;;;;13.90;9.40;;;;;;;5.59;55.14;99889.18;108169;1254;72726;-64
2023/02/24 12:21:04;;;;;;;14.50;9.30;;;;;;;5.59;55.19;99888.34;108149;1254;60850;-64
2023/02/24 12:23:33;;;;;;;14.00;9.40;;;;;;;5.62;55.26;99883.36;108182;1254;61157;-64
2023/02/24 12:26:14;;;;;;;14.20;9.60;;;;;;;5.65;55.23;99878.58;108191;1254;73934;-66
2023/02/24 12:29:09;;;;;;;14.20;9.10;;;;;;;5.67;55.18;99878.93;108201;1254;73975;-63
2023/02/24 12:31:42;;;;;;;13.30;9.30;;;;;;;5.67;55.24;99870.25;108182;1254;73674;-64
2023/02/24 12:34:22;;;;;;;13.60;9.40;;;;;;;5.66;55.34;99871.48;108130;1254;60288;-65
2023/02/24 12:36:57;;;;;;;15.00;9.20;;;;;;;5.63;55.35;99866.10;108184;1254;62128;-64
2023/02/24 12:39:53;;;;;;;13.10;9.00;;;;;;;5.61;55.47;99867.77;108161;1254;73750;-64
2023/02/24 12:42:34;;;;;;;14.00;9.50;;;;;;;5.63;55.54;99860.16;108047;1254;73961;-64
2023/02/24 12:45:36;;;;;;;13.70;8.70;;;;;;;5.67;55.61;99854.82;108168;1254;73543;-65
2023/02/24 12:48:27;;;;;;;15.10;9.50;;;;;;;5.75;55.50;99844.82;108045;1254;62177;-66
2023/02/24 12:50:59;;;;;;;13.20;8.60;;;;;;;5.83;55.58;99841.71;108143;1254;60525;-65
2023/02/24 12:54:04;;;;;;;14.60;9.50;;;;;;;5.87;55.50;99831.02;108140;1254;74163;-65
2023/02/24 12:57:09;;;;;;;14.00;9.30;;;;;;;5.91;55.49;99823.52;107984;1254;73080;-65
2023/02/24 12:59:41;;;;;;;13.90;8.50;;;;;;;5.92;55.45;99822.15;108098;1254;73981;-64
2023/02/24 13:02:12;;;;;;;16.00;9.70;;;;;;;5.92;55.39;99820.30;108012;1254;60240;-65
2023/02/24 13:05:02;;;;;;;15.20;8.90;;;;;;;5.94;55.50;99825.73;108057;1259;61219;-66
2023/02/24 13:07:52;;;;;;;13.40;8.60;;;;;;;6.04;55.53;99821.72;108095;1256;73999;-65
2023/02/24 13:10:27;;;;;;;12.60;8.60;;;;;;;6.12;55.39;99818.77;108055;1256;72858;-69
2023/02/24 13:13:14;;;;;;;14.70;8.90;;;;;;;6.19;55.39;99817.57;108033;1254;72678;-64
2023/02/24 13:15:56;;;;;;;13.30;9.00;;;;;;;6.28;55.20;99808.05;108126;1254;60175;-63
2023/02/24 13:18:30;;;;;;;14.10;8.80;;;;;;;6.33;54.93;99806.71;108117;1254;60323;-64
2023/02/24 13:21:18;;;;;;;15.50;8.40;;;;;;;6.37;54.95;99807.60;108181;1254;73241;-66
2023/02/24 13:24:19;;;;;;;11.60;7.90;;;;;;;6.43;54.90;99810.02;108021;1254;73152;-65
2023/02/24 13:26:47;;;;;;;12.50;8.20;;;;;;;6.41;54.76;99805.21;108019;1255;72413;-65
2023/02/24 13:29:16;;;;;;;12.70;8.50;;;;;;;6.39;54.80;99801.42;108008;1256;59702;-65
2023/02/24 13:31:49;;;;;;;11.60;7.60;;;;;;;6.39;54.86;99799.16;108026;1256;59582;-68
2023/02/24 13:34:41;;;;;;;12.80;8.50;;;;;;;6.40;54.88;99797.77;107990;1256;71689;-65
2023/02/24 13:37:10;;;;;;;12.20;7.80;;;;;;;6.39;54.92;99793.41;108136;1255;71278;-65
2023/02/24 13:39:46;;;;;;;11.40;8.30;;;;;;;6.35;55.00;99790.23;107983;1256;73591;-65
2023/02/24 13:42:23;;;;;;;13.50;8.40;;;;;;;6.30;55.04;99783.86;107987;1254;60196;-66
2023/02/24 13:45:08;;;;;;;14.70;8.80;;;;;;;6.26;55.22;99783.52;108111;1254;59571;-66
2023/02/24 13:47:48;;;;;;;11.50;7.90;;;;;;;6.26;55.34;99771.98;108111;1254;72267;-63
2023/02/24 13:50:36;;;;;;;12.50;8.10;;;;;;;6.28;55.36;99775.67;108132;1254;72945;-66
2023/02/24 13:53:28;;;;;;;13.20;8.60;;;;;;;6.28;55.41;99771.05;108154;1254;71991;-64